createdAt,value
2019-03-21T00:00:50.452Z,6.50
2019-03-21T00:03:17.861Z,6.50
2019-03-21T00:05:45.369Z,6.40
2019-03-21T00:08:12.805Z,6.40
2019-03-21T00:11:19.006Z,6.40
2019-03-21T00:13:46.566Z,6.40
2019-03-21T00:16:13.949Z,6.30
2019-03-21T00:18:41.369Z,6.30
2019-03-21T00:21:08.783Z,6.30
2019-03-21T00:23:36.202Z,6.30
2019-03-21T00:26:03.726Z,6.20
2019-03-21T00:28:31.112Z,6.20
2019-03-21T00:30:58.524Z,6.20
2019-03-21T00:33:26.201Z,6.20
2019-03-21T00:35:54.623Z,6.20
2019-03-21T00:38:22.043Z,6.20
2019-03-21T00:40:49.720Z,6.20
2019-03-21T00:43:17.118Z,6.20
2019-03-21T00:45:44.664Z,6.20
2019-03-21T00:48:13.669Z,6.20
2019-03-21T00:50:42.176Z,6.20
2019-03-21T00:53:09.564Z,6.20
2019-03-21T00:55:37.835Z,6.20
2019-03-21T00:58:05.396Z,6.20
2019-03-21T01:00:39.168Z,6.20
2019-03-21T01:03:07.273Z,6.20
2019-03-21T01:05:35.801Z,6.20
2019-03-21T01:08:03.410Z,6.20
2019-03-21T01:10:31.909Z,6.10
2019-03-21T01:12:59.372Z,6.10
2019-03-21T01:15:26.876Z,6.10
2019-03-21T01:17:54.257Z,6.10
2019-03-21T01:20:21.674Z,6.10
2019-03-21T01:22:49.201Z,6.10
2019-03-21T01:25:26.038Z,6.10
2019-03-21T01:27:53.537Z,6.00
2019-03-21T01:30:21.044Z,6.00
2019-03-21T01:32:48.469Z,6.00
2019-03-21T01:35:15.970Z,5.90
2019-03-21T01:37:43.756Z,5.90
2019-03-21T01:40:14.022Z,5.90
2019-03-21T01:42:41.429Z,5.90
2019-03-21T01:45:10.750Z,6.00
2019-03-21T01:47:39.126Z,5.90
2019-03-21T01:50:07.016Z,5.90
2019-03-21T01:52:34.663Z,5.90
2019-03-21T01:55:02.078Z,5.90
2019-03-21T01:57:29.481Z,5.80
2019-03-21T01:59:56.887Z,5.80
2019-03-21T02:02:24.293Z,5.80
2019-03-21T02:04:51.700Z,5.80
2019-03-21T02:07:19.120Z,5.80
2019-03-21T02:09:46.529Z,5.80
2019-03-21T02:12:13.950Z,5.80
2019-03-21T02:14:51.596Z,5.80
2019-03-21T02:17:10.707Z,5.80
2019-03-21T02:19:38.110Z,5.70
2019-03-21T02:22:05.521Z,5.70
2019-03-21T02:24:32.929Z,5.70
2019-03-21T02:27:01.378Z,5.70
2019-03-21T02:29:28.809Z,5.70
2019-03-21T02:31:56.550Z,5.70
2019-03-21T02:34:23.981Z,5.70
2019-03-21T02:36:51.487Z,5.60
2019-03-21T02:39:19.157Z,5.70
2019-03-21T02:41:46.558Z,5.60
2019-03-21T02:44:14.072Z,5.60
2019-03-21T02:46:41.509Z,5.70
2019-03-21T02:49:09.004Z,5.70
2019-03-21T02:51:37.413Z,5.70
2019-03-21T02:54:04.933Z,5.60
2019-03-21T02:56:32.333Z,5.70
2019-03-21T02:59:00.059Z,5.70
2019-03-21T03:01:27.453Z,5.60
2019-03-21T03:03:55.332Z,5.60
2019-03-21T03:06:22.817Z,5.60
2019-03-21T03:08:50.250Z,5.60
2019-03-21T03:11:17.891Z,5.60
2019-03-21T03:13:46.497Z,5.60
2019-03-21T03:16:14.015Z,5.60
2019-03-21T03:18:41.420Z,5.60
2019-03-21T03:21:09.127Z,5.50
2019-03-21T03:23:36.788Z,5.50
2019-03-21T03:26:04.544Z,5.40
2019-03-21T03:28:32.002Z,5.40
2019-03-21T03:31:00.203Z,5.40
2019-03-21T03:33:27.603Z,5.40
2019-03-21T03:35:55.100Z,5.40
2019-03-21T03:38:22.566Z,5.40
2019-03-21T03:40:52.907Z,5.40
2019-03-21T03:43:20.431Z,5.40
2019-03-21T03:45:48.626Z,5.40
2019-03-21T03:48:19.642Z,5.30
2019-03-21T03:50:45.674Z,5.40
2019-03-21T03:53:13.353Z,5.40
2019-03-21T03:55:40.761Z,5.30
2019-03-21T03:58:10.229Z,5.40
2019-03-21T04:00:38.951Z,5.30
2019-03-21T04:03:06.393Z,5.30
2019-03-21T04:05:34.131Z,5.30
2019-03-21T04:08:01.725Z,5.30
2019-03-21T04:10:31.730Z,5.30
2019-03-21T04:12:59.596Z,5.30
2019-03-21T04:15:27.224Z,5.20
2019-03-21T04:17:54.628Z,5.20
2019-03-21T04:20:24.554Z,5.20
2019-03-21T04:22:51.948Z,5.30
2019-03-21T04:25:22.582Z,5.20
2019-03-21T04:27:49.950Z,5.20
2019-03-21T04:30:17.377Z,5.20
2019-03-21T04:33:04.265Z,5.10
2019-03-21T04:35:31.673Z,5.10
2019-03-21T04:37:59.066Z,5.10
2019-03-21T04:40:27.326Z,5.10
2019-03-21T04:42:54.759Z,5.10
2019-03-21T04:45:22.341Z,5.10
2019-03-21T04:47:49.749Z,5.00
2019-03-21T04:50:19.553Z,5.00
2019-03-21T04:52:47.061Z,5.00
2019-03-21T04:55:14.472Z,5.00
2019-03-21T04:57:41.967Z,4.90
2019-03-21T05:00:15.194Z,4.90
2019-03-21T05:02:42.942Z,4.90
2019-03-21T05:05:10.574Z,4.90
2019-03-21T05:07:37.985Z,5.00
2019-03-21T05:10:07.163Z,4.90
2019-03-21T05:12:34.697Z,5.00
2019-03-21T05:15:02.217Z,5.00
2019-03-21T05:17:29.637Z,5.00
2019-03-21T05:19:57.045Z,5.00
2019-03-21T05:22:24.562Z,5.00
2019-03-21T05:24:52.091Z,5.00
2019-03-21T05:27:19.511Z,5.00
2019-03-21T05:29:46.929Z,5.00
2019-03-21T05:32:14.354Z,5.10
2019-03-21T05:34:41.746Z,5.10
2019-03-21T05:37:09.420Z,5.10
2019-03-21T05:39:36.821Z,5.10
2019-03-21T05:42:08.158Z,5.00
2019-03-21T05:44:39.213Z,5.10
2019-03-21T05:47:06.654Z,5.10
2019-03-21T05:49:34.022Z,5.10
2019-03-21T05:52:01.425Z,5.10
2019-03-21T05:54:29.133Z,5.10
2019-03-21T05:56:56.533Z,5.10
2019-03-21T05:59:23.930Z,5.00
2019-03-21T06:01:51.413Z,5.10
2019-03-21T06:04:18.801Z,5.10
2019-03-21T06:07:26.156Z,5.20
2019-03-21T06:09:53.554Z,5.30
2019-03-21T06:12:21.208Z,5.30
2019-03-21T06:14:52.397Z,5.30
2019-03-21T06:17:19.909Z,5.40
2019-03-21T06:20:09.921Z,5.40
2019-03-21T06:22:44.129Z,5.50
2019-03-21T06:25:27.670Z,5.50
2019-03-21T06:27:55.062Z,5.70
2019-03-21T06:30:22.461Z,5.70
2019-03-21T06:32:49.983Z,5.80
2019-03-21T06:35:21.616Z,5.80
2019-03-21T06:37:49.029Z,5.90
2019-03-21T06:40:16.549Z,5.90
2019-03-21T06:42:44.066Z,6.00
2019-03-21T06:45:11.688Z,6.00
2019-03-21T06:47:39.080Z,6.10
2019-03-21T06:50:07.624Z,6.10
2019-03-21T06:52:35.018Z,6.20
2019-03-21T06:55:02.755Z,6.30
2019-03-21T06:57:31.147Z,6.40
2019-03-21T06:59:58.545Z,6.50
2019-03-21T07:02:25.941Z,6.50
2019-03-21T07:04:53.348Z,6.60
2019-03-21T07:07:20.721Z,6.70
2019-03-21T07:09:48.215Z,6.70
2019-03-21T07:12:15.695Z,6.80
2019-03-21T07:14:44.092Z,6.90
2019-03-21T07:17:11.512Z,7.10
2019-03-21T07:19:38.889Z,7.10
2019-03-21T07:22:06.305Z,7.20
2019-03-21T07:24:33.709Z,7.30
2019-03-21T07:27:01.105Z,7.40
2019-03-21T07:29:28.486Z,7.60
2019-03-21T07:31:56.028Z,7.70
2019-03-21T07:34:23.404Z,7.80
2019-03-21T07:36:50.807Z,7.90
2019-03-21T07:39:18.725Z,8.00
2019-03-21T07:41:46.137Z,8.10
2019-03-21T07:44:13.553Z,8.30
2019-03-21T07:46:40.980Z,8.40
2019-03-21T07:49:08.375Z,8.50
2019-03-21T07:51:35.781Z,8.60
2019-03-21T07:54:03.401Z,8.70
2019-03-21T07:56:30.894Z,8.90
2019-03-21T07:58:58.291Z,9.10
2019-03-21T08:01:25.716Z,9.10
2019-03-21T08:03:53.130Z,9.30
2019-03-21T08:06:20.584Z,9.40
2019-03-21T08:08:48.953Z,9.60
2019-03-21T08:11:16.412Z,9.70
2019-03-21T08:13:43.820Z,9.80
2019-03-21T08:16:12.269Z,9.90
2019-03-21T08:18:39.776Z,10.10
2019-03-21T08:21:07.186Z,10.20
2019-03-21T08:23:35.820Z,10.30
2019-03-21T08:26:03.304Z,10.40
2019-03-21T08:28:31.067Z,10.50
2019-03-21T08:31:14.800Z,10.60
2019-03-21T08:33:42.502Z,10.80
2019-03-21T08:36:09.911Z,10.90
2019-03-21T08:38:37.328Z,11.00
2019-03-21T08:41:04.844Z,11.00
2019-03-21T08:43:32.282Z,11.10
2019-03-21T08:45:59.993Z,11.20
2019-03-21T08:48:27.420Z,11.20
2019-03-21T08:50:54.944Z,11.30
2019-03-21T08:53:22.352Z,11.40
2019-03-21T08:55:49.854Z,11.60
2019-03-21T08:58:17.260Z,11.60
2019-03-21T09:00:44.778Z,11.60
2019-03-21T09:03:12.180Z,11.60
2019-03-21T09:05:39.686Z,11.70
2019-03-21T09:08:07.146Z,11.80
2019-03-21T09:10:34.742Z,12.00
2019-03-21T09:13:02.337Z,12.10
2019-03-21T09:15:29.969Z,12.30
2019-03-21T09:17:57.505Z,12.50
2019-03-21T09:20:25.020Z,12.60
2019-03-21T09:22:52.416Z,12.70
2019-03-21T09:25:19.839Z,12.90
2019-03-21T09:27:47.501Z,13.20
2019-03-21T09:30:15.231Z,13.50
2019-03-21T09:32:42.621Z,13.70
2019-03-21T09:35:12.354Z,13.90
2019-03-21T09:37:39.741Z,13.70
2019-03-21T09:40:07.401Z,13.60
2019-03-21T09:42:34.834Z,13.90
2019-03-21T09:45:03.120Z,14.10
2019-03-21T09:47:30.577Z,14.40
2019-03-21T09:49:59.295Z,14.50
2019-03-21T09:52:27.196Z,14.50
2019-03-21T09:54:54.698Z,14.70
2019-03-21T09:57:22.122Z,14.70
2019-03-21T09:59:49.523Z,15.00
2019-03-21T10:02:17.027Z,15.20
2019-03-21T10:04:44.440Z,15.30
2019-03-21T10:07:11.885Z,15.50
2019-03-21T10:09:39.275Z,16.00
2019-03-21T10:12:06.689Z,16.30
2019-03-21T10:14:35.117Z,17.40
2019-03-21T10:17:02.722Z,18.50
2019-03-21T10:19:30.098Z,20.00
2019-03-21T10:21:57.501Z,21.50
2019-03-21T10:24:24.930Z,22.80
2019-03-21T10:26:52.593Z,23.90
2019-03-21T10:29:20.013Z,24.30
2019-03-21T10:31:47.582Z,24.20
2019-03-21T10:34:14.982Z,24.70
2019-03-21T10:36:42.413Z,24.10
2019-03-21T10:39:09.969Z,23.30
2019-03-21T10:41:37.477Z,22.50
2019-03-21T10:44:05.050Z,22.80
2019-03-21T10:46:32.478Z,23.90
2019-03-21T10:49:00.221Z,24.80
2019-03-21T10:51:27.828Z,25.40
2019-03-21T10:53:55.368Z,25.90
2019-03-21T10:56:22.834Z,25.90
2019-03-21T10:58:50.484Z,26.30
2019-03-21T11:01:18.950Z,26.60
2019-03-21T11:03:46.393Z,26.80
2019-03-21T11:06:13.954Z,27.00
2019-03-21T11:08:41.399Z,26.70
2019-03-21T11:11:08.978Z,26.40
2019-03-21T11:13:36.529Z,26.50
2019-03-21T11:16:04.054Z,27.10
2019-03-21T11:18:35.907Z,25.90
2019-03-21T11:21:01.154Z,26.20
2019-03-21T11:23:28.718Z,26.70
2019-03-21T11:25:56.149Z,27.70
2019-03-21T11:28:23.587Z,28.50
2019-03-21T11:30:51.001Z,28.40
2019-03-21T11:33:18.451Z,28.10
2019-03-21T11:35:46.009Z,28.20
2019-03-21T11:38:13.599Z,28.30
2019-03-21T11:40:41.351Z,28.60
2019-03-21T11:43:11.350Z,28.90
2019-03-21T11:45:38.941Z,29.10
2019-03-21T11:48:06.491Z,29.80
2019-03-21T11:50:34.108Z,29.60
2019-03-21T11:53:01.695Z,29.00
2019-03-21T11:55:29.381Z,27.70
2019-03-21T11:57:56.961Z,27.40
2019-03-21T12:00:24.540Z,28.40
2019-03-21T12:02:52.138Z,28.60
2019-03-21T12:05:19.720Z,28.70
2019-03-21T12:07:47.192Z,29.60
2019-03-21T12:10:16.265Z,29.40
2019-03-21T12:12:43.814Z,29.90
2019-03-21T12:15:12.176Z,30.30
2019-03-21T12:17:39.833Z,30.20
2019-03-21T12:20:07.638Z,29.50
2019-03-21T12:22:35.072Z,29.30
2019-03-21T12:25:03.129Z,29.60
2019-03-21T12:27:30.615Z,29.40
2019-03-21T12:29:58.061Z,30.10
2019-03-21T12:32:27.088Z,30.60
2019-03-21T12:34:54.628Z,30.10
2019-03-21T12:37:22.338Z,29.90
2019-03-21T12:39:49.889Z,30.60
2019-03-21T12:42:17.317Z,29.90
2019-03-21T12:44:44.821Z,29.90
2019-03-21T12:47:12.400Z,30.10
2019-03-21T12:49:39.847Z,30.80
2019-03-21T12:52:07.287Z,31.50
2019-03-21T12:54:34.712Z,31.50
2019-03-21T12:57:02.695Z,31.00
2019-03-21T12:59:30.390Z,31.10
2019-03-21T13:01:57.929Z,30.80
2019-03-21T13:04:25.360Z,29.90
2019-03-21T13:06:52.816Z,29.60
2019-03-21T13:09:20.256Z,30.40
2019-03-21T13:11:47.678Z,30.60
2019-03-21T13:14:15.250Z,30.50
2019-03-21T13:16:42.932Z,30.10
2019-03-21T13:19:10.621Z,30.80
2019-03-21T13:21:38.456Z,31.20
2019-03-21T13:24:06.183Z,31.10
2019-03-21T13:26:33.759Z,31.10
2019-03-21T13:29:01.618Z,31.50
2019-03-21T13:31:29.299Z,30.40
2019-03-21T13:33:57.006Z,29.70
2019-03-21T13:36:24.758Z,30.00
2019-03-21T13:38:52.469Z,30.00
2019-03-21T13:41:20.112Z,30.00
2019-03-21T13:43:47.753Z,30.00
2019-03-21T13:46:15.827Z,29.80
2019-03-21T13:48:43.526Z,29.40
2019-03-21T13:51:11.205Z,29.70
2019-03-21T13:53:38.811Z,30.10
2019-03-21T13:56:06.667Z,28.60
2019-03-21T13:58:34.384Z,28.40
2019-03-21T14:01:03.238Z,28.80
2019-03-21T14:03:30.998Z,29.50
2019-03-21T14:05:58.743Z,29.70
2019-03-21T14:08:26.622Z,29.10
2019-03-21T14:10:54.368Z,28.80
2019-03-21T14:13:21.975Z,29.10
2019-03-21T14:15:49.629Z,29.40
2019-03-21T14:18:17.754Z,29.70
2019-03-21T14:20:45.414Z,30.00
2019-03-21T14:23:17.315Z,29.90
2019-03-21T14:25:42.722Z,29.70
2019-03-21T14:28:10.616Z,29.60
2019-03-21T14:30:38.353Z,29.20
2019-03-21T14:33:08.332Z,28.90
2019-03-21T14:35:36.212Z,29.30
2019-03-21T14:38:03.976Z,29.40
2019-03-21T14:40:31.577Z,29.10
2019-03-21T14:42:59.317Z,29.30
2019-03-21T14:45:27.319Z,29.20
2019-03-21T14:47:54.891Z,29.10
2019-03-21T14:50:22.519Z,29.10
2019-03-21T14:52:50.338Z,28.60
2019-03-21T14:55:18.054Z,28.20
2019-03-21T14:57:45.599Z,28.40
2019-03-21T15:00:15.939Z,28.60
2019-03-21T15:02:43.702Z,28.30
2019-03-21T15:05:11.597Z,28.80
2019-03-21T15:07:39.419Z,28.10
2019-03-21T15:10:08.124Z,27.80
2019-03-21T15:12:35.937Z,27.20
2019-03-21T15:15:05.086Z,27.40
2019-03-21T15:17:32.714Z,26.70
2019-03-21T15:20:00.446Z,26.30
2019-03-21T15:22:29.103Z,26.10
2019-03-21T15:24:57.578Z,25.60
2019-03-21T15:27:25.094Z,25.70
2019-03-21T15:29:52.907Z,25.60
2019-03-21T15:32:20.602Z,25.80
2019-03-21T15:34:48.377Z,25.70
2019-03-21T15:37:16.066Z,25.60
2019-03-21T15:39:43.790Z,25.20
2019-03-21T15:42:11.375Z,25.10
2019-03-21T15:44:38.948Z,24.90
2019-03-21T15:47:06.792Z,24.90
2019-03-21T15:49:34.564Z,25.00
2019-03-21T15:52:02.338Z,24.40
2019-03-21T15:54:29.901Z,23.40
2019-03-21T15:56:57.523Z,22.10
2019-03-21T15:59:25.302Z,21.00
2019-03-21T16:01:53.143Z,20.40
2019-03-21T16:04:21.094Z,19.90
2019-03-21T16:06:48.779Z,19.60
2019-03-21T16:09:16.650Z,19.20
2019-03-21T16:11:44.793Z,19.00
2019-03-21T16:14:12.827Z,18.80
2019-03-21T16:16:40.447Z,18.60
2019-03-21T16:19:08.243Z,18.60
2019-03-21T16:21:35.825Z,18.60
2019-03-21T16:24:05.344Z,18.60
2019-03-21T16:26:33.479Z,18.40
2019-03-21T16:29:01.062Z,18.20
2019-03-21T16:31:28.463Z,18.20
2019-03-21T16:33:55.855Z,18.10
2019-03-21T16:36:23.276Z,18.00
2019-03-21T16:38:50.997Z,17.90
2019-03-21T16:41:18.370Z,17.70
2019-03-21T16:43:45.783Z,17.60
2019-03-21T16:46:13.171Z,17.60
2019-03-21T16:48:40.669Z,17.70
2019-03-21T16:51:08.059Z,17.70
2019-03-21T16:53:36.456Z,17.60
2019-03-21T16:56:03.945Z,17.50
2019-03-21T16:58:32.439Z,17.40
2019-03-21T17:00:59.880Z,17.20
2019-03-21T17:03:27.283Z,17.00
2019-03-21T17:05:54.925Z,16.90
2019-03-21T17:08:22.621Z,16.80
2019-03-21T17:10:50.137Z,16.60
2019-03-21T17:13:18.267Z,16.40
2019-03-21T17:15:45.695Z,16.30
2019-03-21T17:18:13.129Z,16.20
2019-03-21T17:20:40.623Z,16.10
2019-03-21T17:23:08.012Z,15.90
2019-03-21T17:25:35.471Z,15.70
2019-03-21T17:28:03.063Z,15.60
2019-03-21T17:30:30.562Z,15.50
2019-03-21T17:32:57.954Z,15.40
2019-03-21T17:35:25.318Z,15.20
2019-03-21T17:37:52.693Z,15.10
2019-03-21T17:40:20.111Z,14.90
2019-03-21T17:42:47.506Z,14.90
2019-03-21T17:45:15.720Z,14.70
2019-03-21T17:47:43.297Z,14.60
2019-03-21T17:50:11.650Z,14.50
2019-03-21T17:52:39.055Z,14.40
2019-03-21T17:55:09.037Z,14.30
2019-03-21T17:57:36.394Z,14.10
2019-03-21T18:00:07.050Z,14.00
2019-03-21T18:02:34.541Z,13.90
2019-03-21T18:05:02.214Z,13.90
2019-03-21T18:07:30.610Z,13.80
2019-03-21T18:09:57.994Z,13.80
2019-03-21T18:12:25.363Z,13.70
2019-03-21T18:14:52.761Z,13.60
2019-03-21T18:17:20.131Z,13.50
2019-03-21T18:19:47.615Z,13.50
2019-03-21T18:22:14.992Z,13.40
2019-03-21T18:24:53.426Z,13.30
2019-03-21T18:27:11.790Z,13.20
2019-03-21T18:29:39.182Z,13.10
2019-03-21T18:32:07.561Z,13.00
2019-03-21T18:34:34.949Z,12.90
2019-03-21T18:37:02.441Z,12.80
2019-03-21T18:39:29.856Z,12.70
2019-03-21T18:41:57.418Z,12.60
2019-03-21T18:44:24.801Z,12.60
2019-03-21T18:46:52.169Z,12.50
2019-03-21T18:49:19.553Z,12.40
2019-03-21T18:51:46.906Z,12.40
2019-03-21T18:54:14.328Z,12.30
2019-03-21T18:56:41.697Z,12.30
2019-03-21T18:59:09.326Z,12.20
2019-03-21T19:01:36.966Z,12.20
2019-03-21T19:04:04.341Z,12.10
2019-03-21T19:06:31.717Z,12.00
2019-03-21T19:08:59.101Z,11.90
2019-03-21T19:11:26.498Z,11.80
2019-03-21T19:13:53.913Z,11.80
2019-03-21T19:16:21.442Z,11.70
2019-03-21T19:18:48.814Z,11.70
2019-03-21T19:21:16.221Z,11.70
2019-03-21T19:23:43.675Z,11.60
2019-03-21T19:26:11.462Z,11.60
2019-03-21T19:28:38.851Z,11.50
2019-03-21T19:31:06.245Z,11.50
2019-03-21T19:33:33.738Z,11.50
2019-03-21T19:36:01.179Z,11.40
2019-03-21T19:38:28.675Z,11.30
2019-03-21T19:40:56.076Z,11.30
2019-03-21T19:43:23.549Z,11.30
2019-03-21T19:45:50.940Z,11.20
2019-03-21T19:48:18.328Z,11.20
2019-03-21T19:50:45.750Z,11.20
2019-03-21T19:53:13.251Z,11.20
2019-03-21T19:55:40.662Z,11.20
2019-03-21T19:58:08.132Z,11.10
2019-03-21T20:00:35.536Z,11.00
2019-03-21T20:03:03.201Z,11.00
2019-03-21T20:05:30.719Z,11.00
2019-03-21T20:07:58.144Z,11.00
2019-03-21T20:10:25.730Z,11.00
2019-03-21T20:12:53.114Z,11.00
2019-03-21T20:15:21.634Z,10.90
2019-03-21T20:17:49.130Z,10.90
2019-03-21T20:20:16.935Z,10.80
2019-03-21T20:22:44.670Z,10.70
2019-03-21T20:25:12.576Z,10.70
2019-03-21T20:27:40.296Z,10.70
2019-03-21T20:30:09.637Z,10.60
2019-03-21T20:32:37.119Z,10.50
2019-03-21T20:35:06.948Z,10.50
2019-03-21T20:37:34.353Z,10.40
2019-03-21T20:40:01.956Z,10.30
2019-03-21T20:42:29.526Z,10.30
2019-03-21T20:44:56.990Z,10.30
2019-03-21T20:47:24.401Z,10.20
2019-03-21T20:49:52.803Z,10.20
2019-03-21T20:52:20.356Z,10.30
2019-03-21T20:54:47.734Z,10.30
2019-03-21T20:57:15.430Z,10.30
2019-03-21T20:59:42.828Z,10.30
2019-03-21T21:02:10.353Z,10.20
2019-03-21T21:04:37.732Z,10.10
2019-03-21T21:07:05.229Z,10.10
2019-03-21T21:09:32.742Z,10.00
2019-03-21T21:12:00.149Z,10.00
2019-03-21T21:14:27.548Z,10.00
2019-03-21T21:16:55.933Z,10.00
2019-03-21T21:19:23.353Z,9.90
2019-03-21T21:21:50.790Z,9.90
2019-03-21T21:24:18.205Z,9.80
2019-03-21T21:26:45.630Z,9.70
2019-03-21T21:29:13.368Z,9.70
2019-03-21T21:31:40.777Z,9.70
2019-03-21T21:34:08.350Z,9.60
2019-03-21T21:36:35.719Z,9.60
2019-03-21T21:39:06.132Z,9.60
2019-03-21T21:41:33.654Z,9.50
2019-03-21T21:44:01.091Z,9.40
2019-03-21T21:46:28.586Z,9.40
2019-03-21T21:48:56.024Z,9.40
2019-03-21T21:51:23.453Z,9.30
2019-03-21T21:53:50.888Z,9.30
2019-03-21T21:56:18.373Z,9.20
2019-03-21T21:58:46.058Z,9.20
2019-03-21T22:01:13.787Z,9.10
2019-03-21T22:03:41.168Z,9.10
2019-03-21T22:06:08.667Z,9.10
2019-03-21T22:08:36.057Z,9.10
2019-03-21T22:11:03.665Z,9.10
2019-03-21T22:13:31.066Z,9.10
2019-03-21T22:15:58.516Z,9.10
2019-03-21T22:18:26.046Z,9.00
2019-03-21T22:20:53.452Z,9.00
2019-03-21T22:23:20.890Z,8.90
2019-03-21T22:25:48.357Z,8.90
2019-03-21T22:28:15.734Z,8.90
2019-03-21T22:30:43.188Z,8.90
2019-03-21T22:33:10.601Z,8.80
2019-03-21T22:35:38.020Z,8.80
2019-03-21T22:38:05.510Z,8.90
2019-03-21T22:40:33.085Z,8.90
2019-03-21T22:43:00.461Z,8.90
2019-03-21T22:45:27.887Z,8.80
2019-03-21T22:47:55.306Z,8.80
2019-03-21T22:50:22.710Z,8.70
2019-03-21T22:52:50.224Z,8.70
2019-03-21T22:55:17.713Z,8.60
2019-03-21T22:57:45.093Z,8.60
2019-03-21T23:00:15.838Z,8.60
2019-03-21T23:02:45.227Z,8.50
2019-03-21T23:05:13.200Z,8.50
2019-03-21T23:07:40.686Z,8.50
2019-03-21T23:10:08.491Z,8.40
2019-03-21T23:12:35.936Z,8.40
2019-03-21T23:15:04.961Z,8.40
2019-03-21T23:17:32.355Z,8.40
2019-03-21T23:19:59.758Z,8.40
2019-03-21T23:22:27.273Z,8.30
2019-03-21T23:24:54.893Z,8.40
2019-03-21T23:27:22.288Z,8.30
2019-03-21T23:29:50.341Z,8.30
2019-03-21T23:32:17.837Z,8.30
2019-03-21T23:34:45.233Z,8.30
2019-03-21T23:37:12.630Z,8.30
2019-03-21T23:39:40.010Z,8.20
2019-03-21T23:42:07.441Z,8.20
2019-03-21T23:44:35.042Z,8.20
2019-03-21T23:47:02.570Z,8.10
2019-03-21T23:49:29.945Z,8.20
2019-03-21T23:51:57.364Z,8.10
2019-03-21T23:54:24.857Z,8.10
2019-03-21T23:57:03.859Z,8.10
2019-03-21T23:59:21.813Z,8.10
